sensor_id;sensor_type;location;lat;lon;timestamp;temperature;humidity
59282;DHT22;45054;52.062;10.010;2022-09-17T00:00:04;11.20;99.90
59282;DHT22;45054;52.062;10.010;2022-09-17T00:02:29;11.20;99.90
59282;DHT22;45054;52.062;10.010;2022-09-17T00:04:55;11.30;99.90
59282;DHT22;45054;52.062;10.010;2022-09-17T00:07:20;11.40;99.90
59282;DHT22;45054;52.062;10.010;2022-09-17T00:09:46;11.40;99.90
59282;DHT22;45054;52.062;10.010;2022-09-17T00:12:11;11.40;99.90
59282;DHT22;45054;52.062;10.010;2022-09-17T00:14:38;11.40;99.90
59282;DHT22;45054;52.062;10.010;2022-09-17T00:17:04;11.30;99.90
59282;DHT22;45054;52.062;10.010;2022-09-17T00:19:29;11.30;99.90
59282;DHT22;45054;52.062;10.010;2022-09-17T00:21:55;11.30;99.90
59282;DHT22;45054;52.062;10.010;2022-09-17T00:24:20;11.30;99.90
59282;DHT22;45054;52.062;10.010;2022-09-17T00:26:46;11.30;99.90
59282;DHT22;45054;52.062;10.010;2022-09-17T00:29:12;11.30;99.90
59282;DHT22;45054;52.062;10.010;2022-09-17T00:31:39;11.30;99.90
59282;DHT22;45054;52.062;10.010;2022-09-17T00:34:05;11.30;99.90
59282;DHT22;45054;52.062;10.010;2022-09-17T00:36:30;11.30;99.90
59282;DHT22;45054;52.062;10.010;2022-09-17T00:38:56;11.30;99.90
59282;DHT22;45054;52.062;10.010;2022-09-17T00:41:23;11.30;99.90
59282;DHT22;45054;52.062;10.010;2022-09-17T00:43:50;11.40;99.90
59282;DHT22;45054;52.062;10.010;2022-09-17T00:46:19;11.40;99.90
59282;DHT22;45054;52.062;10.010;2022-09-17T00:48:48;11.40;99.90
59282;DHT22;45054;52.062;10.010;2022-09-17T00:51:14;11.40;99.90
59282;DHT22;45054;52.062;10.010;2022-09-17T00:53:42;11.50;99.90
59282;DHT22;45054;52.062;10.010;2022-09-17T00:56:08;11.50;99.90
59282;DHT22;45054;52.062;10.010;2022-09-17T00:58:36;11.50;99.90
59282;DHT22;45054;52.062;10.010;2022-09-17T01:01:02;11.50;99.90
59282;DHT22;45054;52.062;10.010;2022-09-17T01:03:28;11.50;99.90
59282;DHT22;45054;52.062;10.010;2022-09-17T01:05:56;11.60;99.90
59282;DHT22;45054;52.062;10.010;2022-09-17T01:08:24;11.50;99.90
59282;DHT22;45054;52.062;10.010;2022-09-17T01:10:56;11.60;99.90
59282;DHT22;45054;52.062;10.010;2022-09-17T01:13:28;11.60;99.90
59282;DHT22;45054;52.062;10.010;2022-09-17T01:15:57;11.60;99.90
59282;DHT22;45054;52.062;10.010;2022-09-17T01:18:31;11.50;99.90
59282;DHT22;45054;52.062;10.010;2022-09-17T01:23:54;11.60;99.90
59282;DHT22;45054;52.062;10.010;2022-09-17T01:26:31;11.60;99.90
59282;DHT22;45054;52.062;10.010;2022-09-17T01:29:04;11.60;99.90
59282;DHT22;45054;52.062;10.010;2022-09-17T01:31:35;11.60;99.90
59282;DHT22;45054;52.062;10.010;2022-09-17T01:34:06;11.60;99.90
59282;DHT22;45054;52.062;10.010;2022-09-17T01:36:38;11.60;99.90
59282;DHT22;45054;52.062;10.010;2022-09-17T01:39:06;11.50;99.90
59282;DHT22;45054;52.062;10.010;2022-09-17T01:41:39;11.50;99.90
59282;DHT22;45054;52.062;10.010;2022-09-17T01:44:06;11.50;99.90
59282;DHT22;45054;52.062;10.010;2022-09-17T01:46:37;11.50;99.90
59282;DHT22;45054;52.062;10.010;2022-09-17T01:49:04;11.60;99.90
59282;DHT22;45054;52.062;10.010;2022-09-17T01:51:34;11.60;99.90
59282;DHT22;45054;52.062;10.010;2022-09-17T01:54:01;11.60;99.90
59282;DHT22;45054;52.062;10.010;2022-09-17T01:56:30;11.50;99.90
59282;DHT22;45054;52.062;10.010;2022-09-17T01:58:59;11.50;99.90
59282;DHT22;45054;52.062;10.010;2022-09-17T02:01:26;11.50;99.90
59282;DHT22;45054;52.062;10.010;2022-09-17T02:03:56;11.50;99.90
59282;DHT22;45054;52.062;10.010;2022-09-17T02:06:23;11.40;99.90
59282;DHT22;45054;52.062;10.010;2022-09-17T02:08:50;11.40;99.90
59282;DHT22;45054;52.062;10.010;2022-09-17T02:11:17;11.40;99.90
59282;DHT22;45054;52.062;10.010;2022-09-17T02:13:44;11.40;99.90
59282;DHT22;45054;52.062;10.010;2022-09-17T02:16:11;11.40;99.90
59282;DHT22;45054;52.062;10.010;2022-09-17T02:18:38;11.40;99.90
59282;DHT22;45054;52.062;10.010;2022-09-17T02:21:10;11.40;99.90
59282;DHT22;45054;52.062;10.010;2022-09-17T02:23:40;11.40;99.90
59282;DHT22;45054;52.062;10.010;2022-09-17T02:26:08;11.30;99.90
59282;DHT22;45054;52.062;10.010;2022-09-17T02:28:36;11.40;99.90
59282;DHT22;45054;52.062;10.010;2022-09-17T02:31:04;11.30;99.90
59282;DHT22;45054;52.062;10.010;2022-09-17T02:33:30;11.30;99.90
59282;DHT22;45054;52.062;10.010;2022-09-17T02:35:57;11.30;99.90
59282;DHT22;45054;52.062;10.010;2022-09-17T02:38:24;11.30;99.90
59282;DHT22;45054;52.062;10.010;2022-09-17T02:40:52;11.40;99.90
59282;DHT22;45054;52.062;10.010;2022-09-17T02:43:22;11.40;99.90
59282;DHT22;45054;52.062;10.010;2022-09-17T02:45:51;11.40;99.90
59282;DHT22;45054;52.062;10.010;2022-09-17T02:48:32;11.40;99.90
59282;DHT22;45054;52.062;10.010;2022-09-17T02:51:10;11.40;99.90
59282;DHT22;45054;52.062;10.010;2022-09-17T02:53:40;11.40;99.90
59282;DHT22;45054;52.062;10.010;2022-09-17T02:56:12;11.40;99.90
59282;DHT22;45054;52.062;10.010;2022-09-17T02:58:39;11.40;99.90
59282;DHT22;45054;52.062;10.010;2022-09-17T03:01:11;11.30;99.90
59282;DHT22;45054;52.062;10.010;2022-09-17T03:03:40;11.40;99.90
59282;DHT22;45054;52.062;10.010;2022-09-17T03:06:07;11.40;99.90
59282;DHT22;45054;52.062;10.010;2022-09-17T03:08:33;11.40;99.90
59282;DHT22;45054;52.062;10.010;2022-09-17T03:11:00;11.30;99.90
59282;DHT22;45054;52.062;10.010;2022-09-17T03:13:26;11.30;99.90
59282;DHT22;45054;52.062;10.010;2022-09-17T03:15:51;11.30;99.90
59282;DHT22;45054;52.062;10.010;2022-09-17T03:18:16;11.30;99.90
59282;DHT22;45054;52.062;10.010;2022-09-17T03:20:42;11.40;99.90
59282;DHT22;45054;52.062;10.010;2022-09-17T03:23:07;11.30;99.90
59282;DHT22;45054;52.062;10.010;2022-09-17T03:25:33;11.30;99.90
59282;DHT22;45054;52.062;10.010;2022-09-17T03:28:00;11.30;99.90
59282;DHT22;45054;52.062;10.010;2022-09-17T03:30:25;11.20;99.90
59282;DHT22;45054;52.062;10.010;2022-09-17T03:32:51;11.20;99.90
59282;DHT22;45054;52.062;10.010;2022-09-17T03:35:16;11.20;99.90
59282;DHT22;45054;52.062;10.010;2022-09-17T03:37:42;11.30;99.90
59282;DHT22;45054;52.062;10.010;2022-09-17T03:40:07;11.30;99.90
59282;DHT22;45054;52.062;10.010;2022-09-17T03:42:33;11.30;99.90
59282;DHT22;45054;52.062;10.010;2022-09-17T03:45:00;11.30;99.90
59282;DHT22;45054;52.062;10.010;2022-09-17T03:47:25;11.30;99.90
59282;DHT22;45054;52.062;10.010;2022-09-17T03:49:50;11.20;99.90
59282;DHT22;45054;52.062;10.010;2022-09-17T03:52:16;11.10;99.90
59282;DHT22;45054;52.062;10.010;2022-09-17T03:54:41;11.10;99.90
59282;DHT22;45054;52.062;10.010;2022-09-17T03:57:07;11.20;99.90
59282;DHT22;45054;52.062;10.010;2022-09-17T03:59:32;11.20;99.90
59282;DHT22;45054;52.062;10.010;2022-09-17T04:01:59;11.20;99.90
59282;DHT22;45054;52.062;10.010;2022-09-17T04:04:24;11.10;99.90
59282;DHT22;45054;52.062;10.010;2022-09-17T04:06:50;11.10;99.90
59282;DHT22;45054;52.062;10.010;2022-09-17T04:09:15;11.10;99.90
59282;DHT22;45054;52.062;10.010;2022-09-17T04:11:41;11.00;99.90
59282;DHT22;45054;52.062;10.010;2022-09-17T04:14:06;11.00;99.90
59282;DHT22;45054;52.062;10.010;2022-09-17T04:16:32;11.10;99.90
59282;DHT22;45054;52.062;10.010;2022-09-17T04:18:58;11.10;99.90
59282;DHT22;45054;52.062;10.010;2022-09-17T04:21:24;11.00;99.90
59282;DHT22;45054;52.062;10.010;2022-09-17T04:23:49;11.00;99.90
59282;DHT22;45054;52.062;10.010;2022-09-17T04:26:15;11.00;99.90
59282;DHT22;45054;52.062;10.010;2022-09-17T04:28:40;11.00;99.90
59282;DHT22;45054;52.062;10.010;2022-09-17T04:31:06;11.00;99.90
59282;DHT22;45054;52.062;10.010;2022-09-17T04:33:31;11.00;99.90
59282;DHT22;45054;52.062;10.010;2022-09-17T04:35:58;11.00;99.90
59282;DHT22;45054;52.062;10.010;2022-09-17T04:38:23;10.90;99.90
59282;DHT22;45054;52.062;10.010;2022-09-17T04:40:49;10.90;99.90
59282;DHT22;45054;52.062;10.010;2022-09-17T04:43:14;10.90;99.90
59282;DHT22;45054;52.062;10.010;2022-09-17T04:45:40;10.90;99.90
59282;DHT22;45054;52.062;10.010;2022-09-17T04:48:05;11.00;99.90
59282;DHT22;45054;52.062;10.010;2022-09-17T04:50:31;11.00;99.90
59282;DHT22;45054;52.062;10.010;2022-09-17T04:52:58;11.00;99.90
59282;DHT22;45054;52.062;10.010;2022-09-17T04:55:23;10.90;99.90
59282;DHT22;45054;52.062;10.010;2022-09-17T04:57:49;10.80;99.90
59282;DHT22;45054;52.062;10.010;2022-09-17T05:00:16;10.80;99.90
59282;DHT22;45054;52.062;10.010;2022-09-17T05:02:42;10.90;99.90
59282;DHT22;45054;52.062;10.010;2022-09-17T05:05:08;10.90;99.90
59282;DHT22;45054;52.062;10.010;2022-09-17T05:07:33;10.90;99.90
59282;DHT22;45054;52.062;10.010;2022-09-17T05:10:00;10.80;99.90
59282;DHT22;45054;52.062;10.010;2022-09-17T05:12:25;10.90;99.90
59282;DHT22;45054;52.062;10.010;2022-09-17T05:14:51;10.90;99.90
59282;DHT22;45054;52.062;10.010;2022-09-17T05:17:16;10.90;99.90
59282;DHT22;45054;52.062;10.010;2022-09-17T05:19:42;10.90;99.90
59282;DHT22;45054;52.062;10.010;2022-09-17T05:22:07;10.90;99.90
59282;DHT22;45054;52.062;10.010;2022-09-17T05:24:32;10.90;99.90
59282;DHT22;45054;52.062;10.010;2022-09-17T05:26:59;10.90;99.90
59282;DHT22;45054;52.062;10.010;2022-09-17T05:29:25;10.80;99.90
59282;DHT22;45054;52.062;10.010;2022-09-17T05:31:50;10.80;99.90
59282;DHT22;45054;52.062;10.010;2022-09-17T05:34:16;10.90;99.90
59282;DHT22;45054;52.062;10.010;2022-09-17T05:36:41;10.90;99.90
59282;DHT22;45054;52.062;10.010;2022-09-17T05:39:06;10.90;99.90
59282;DHT22;45054;52.062;10.010;2022-09-17T05:41:32;10.80;99.90
59282;DHT22;45054;52.062;10.010;2022-09-17T05:43:59;10.90;99.90
59282;DHT22;45054;52.062;10.010;2022-09-17T05:46:25;10.90;99.90
59282;DHT22;45054;52.062;10.010;2022-09-17T05:48:50;10.90;99.90
59282;DHT22;45054;52.062;10.010;2022-09-17T05:51:19;10.90;99.90
59282;DHT22;45054;52.062;10.010;2022-09-17T05:53:44;10.80;99.90
59282;DHT22;45054;52.062;10.010;2022-09-17T05:56:10;10.80;99.90
59282;DHT22;45054;52.062;10.010;2022-09-17T05:58:35;10.80;99.90
59282;DHT22;45054;52.062;10.010;2022-09-17T06:01:02;10.80;99.90
59282;DHT22;45054;52.062;10.010;2022-09-17T06:03:28;10.70;99.90
59282;DHT22;45054;52.062;10.010;2022-09-17T06:05:54;10.70;99.90
59282;DHT22;45054;52.062;10.010;2022-09-17T06:08:20;10.70;99.90
59282;DHT22;45054;52.062;10.010;2022-09-17T06:10:45;10.70;99.90
59282;DHT22;45054;52.062;10.010;2022-09-17T06:13:11;10.70;99.90
59282;DHT22;45054;52.062;10.010;2022-09-17T06:15:36;10.80;99.90
59282;DHT22;45054;52.062;10.010;2022-09-17T06:18:03;10.80;99.90
59282;DHT22;45054;52.062;10.010;2022-09-17T06:20:28;10.80;99.90
59282;DHT22;45054;52.062;10.010;2022-09-17T06:22:54;10.80;99.90
59282;DHT22;45054;52.062;10.010;2022-09-17T06:25:20;10.70;99.90
59282;DHT22;45054;52.062;10.010;2022-09-17T06:27:45;10.60;99.90
59282;DHT22;45054;52.062;10.010;2022-09-17T06:30:11;10.60;99.90
59282;DHT22;45054;52.062;10.010;2022-09-17T06:32:36;10.70;99.90
59282;DHT22;45054;52.062;10.010;2022-09-17T06:35:03;10.80;99.90
59282;DHT22;45054;52.062;10.010;2022-09-17T06:37:29;10.80;99.90
59282;DHT22;45054;52.062;10.010;2022-09-17T06:39:55;10.80;99.90
59282;DHT22;45054;52.062;10.010;2022-09-17T06:42:20;10.80;99.90
59282;DHT22;45054;52.062;10.010;2022-09-17T06:44:46;10.80;99.90
59282;DHT22;45054;52.062;10.010;2022-09-17T06:47:11;10.70;99.90
59282;DHT22;45054;52.062;10.010;2022-09-17T06:49:37;10.70;99.90
59282;DHT22;45054;52.062;10.010;2022-09-17T06:52:04;10.70;99.90
59282;DHT22;45054;52.062;10.010;2022-09-17T06:54:29;10.60;99.90
59282;DHT22;45054;52.062;10.010;2022-09-17T06:56:55;10.60;99.90
59282;DHT22;45054;52.062;10.010;2022-09-17T06:59:20;10.70;99.90
59282;DHT22;45054;52.062;10.010;2022-09-17T07:01:46;10.70;99.90
59282;DHT22;45054;52.062;10.010;2022-09-17T07:04:11;10.70;99.90
59282;DHT22;45054;52.062;10.010;2022-09-17T07:06:37;10.60;99.90
59282;DHT22;45054;52.062;10.010;2022-09-17T07:09:03;10.60;99.90
59282;DHT22;45054;52.062;10.010;2022-09-17T07:11:29;10.70;99.90
59282;DHT22;45054;52.062;10.010;2022-09-17T07:13:54;10.70;99.90
59282;DHT22;45054;52.062;10.010;2022-09-17T07:16:20;10.80;99.90
59282;DHT22;45054;52.062;10.010;2022-09-17T07:18:45;10.80;99.90
59282;DHT22;45054;52.062;10.010;2022-09-17T07:21:11;10.80;99.90
59282;DHT22;45054;52.062;10.010;2022-09-17T07:23:36;10.80;99.90
59282;DHT22;45054;52.062;10.010;2022-09-17T07:26:04;10.90;99.90
59282;DHT22;45054;52.062;10.010;2022-09-17T07:28:29;11.00;99.90
59282;DHT22;45054;52.062;10.010;2022-09-17T07:30:55;11.00;99.90
59282;DHT22;45054;52.062;10.010;2022-09-17T07:33:22;11.10;99.90
59282;DHT22;45054;52.062;10.010;2022-09-17T07:35:51;11.20;99.90
59282;DHT22;45054;52.062;10.010;2022-09-17T07:38:16;11.20;99.90
59282;DHT22;45054;52.062;10.010;2022-09-17T07:40:42;11.30;99.90
59282;DHT22;45054;52.062;10.010;2022-09-17T07:43:08;11.40;99.90
59282;DHT22;45054;52.062;10.010;2022-09-17T07:45:34;11.50;99.90
59282;DHT22;45054;52.062;10.010;2022-09-17T07:47:59;11.50;99.90
59282;DHT22;45054;52.062;10.010;2022-09-17T07:50:25;11.50;99.90
59282;DHT22;45054;52.062;10.010;2022-09-17T07:52:50;11.50;99.90
59282;DHT22;45054;52.062;10.010;2022-09-17T07:55:16;11.60;99.90
59282;DHT22;45054;52.062;10.010;2022-09-17T07:57:41;11.70;99.90
59282;DHT22;45054;52.062;10.010;2022-09-17T08:00:08;11.70;99.90
59282;DHT22;45054;52.062;10.010;2022-09-17T08:02:34;11.60;99.90
59282;DHT22;45054;52.062;10.010;2022-09-17T08:04:59;11.70;99.90
59282;DHT22;45054;52.062;10.010;2022-09-17T08:07:25;11.70;99.90
59282;DHT22;45054;52.062;10.010;2022-09-17T08:09:50;11.80;99.90
59282;DHT22;45054;52.062;10.010;2022-09-17T08:12:16;11.80;99.90
59282;DHT22;45054;52.062;10.010;2022-09-17T08:14:41;11.90;99.90
59282;DHT22;45054;52.062;10.010;2022-09-17T08:17:08;11.80;99.90
59282;DHT22;45054;52.062;10.010;2022-09-17T08:19:34;11.90;99.90
59282;DHT22;45054;52.062;10.010;2022-09-17T08:21:59;12.00;99.90
59282;DHT22;45054;52.062;10.010;2022-09-17T08:24:25;12.10;99.90
59282;DHT22;45054;52.062;10.010;2022-09-17T08:26:50;12.10;99.90
59282;DHT22;45054;52.062;10.010;2022-09-17T08:29:16;12.10;99.90
59282;DHT22;45054;52.062;10.010;2022-09-17T08:31:41;12.10;99.90
59282;DHT22;45054;52.062;10.010;2022-09-17T08:34:08;12.10;99.90
59282;DHT22;45054;52.062;10.010;2022-09-17T08:36:33;12.10;99.90
59282;DHT22;45054;52.062;10.010;2022-09-17T08:38:59;12.10;99.90
59282;DHT22;45054;52.062;10.010;2022-09-17T08:41:25;12.20;99.90
59282;DHT22;45054;52.062;10.010;2022-09-17T08:43:57;12.30;99.90
59282;DHT22;45054;52.062;10.010;2022-09-17T08:46:24;12.40;99.90
59282;DHT22;45054;52.062;10.010;2022-09-17T08:48:50;12.60;99.90
59282;DHT22;45054;52.062;10.010;2022-09-17T08:51:23;12.70;99.90
59282;DHT22;45054;52.062;10.010;2022-09-17T08:53:54;12.70;99.90
59282;DHT22;45054;52.062;10.010;2022-09-17T08:56:21;12.70;99.90
59282;DHT22;45054;52.062;10.010;2022-09-17T08:58:53;12.60;99.90
59282;DHT22;45054;52.062;10.010;2022-09-17T09:01:23;12.60;99.90
59282;DHT22;45054;52.062;10.010;2022-09-17T09:03:55;12.50;99.90
59282;DHT22;45054;52.062;10.010;2022-09-17T09:06:25;12.50;99.90
59282;DHT22;45054;52.062;10.010;2022-09-17T09:08:53;12.60;99.90
59282;DHT22;45054;52.062;10.010;2022-09-17T09:11:21;12.70;99.90
59282;DHT22;45054;52.062;10.010;2022-09-17T09:13:48;12.70;99.90
59282;DHT22;45054;52.062;10.010;2022-09-17T09:16:15;12.60;99.90
59282;DHT22;45054;52.062;10.010;2022-09-17T09:18:41;12.60;99.90
59282;DHT22;45054;52.062;10.010;2022-09-17T09:21:11;12.60;99.90
59282;DHT22;45054;52.062;10.010;2022-09-17T09:23:44;12.70;99.90
59282;DHT22;45054;52.062;10.010;2022-09-17T09:26:15;12.80;99.90
59282;DHT22;45054;52.062;10.010;2022-09-17T09:28:44;12.90;99.90
59282;DHT22;45054;52.062;10.010;2022-09-17T09:31:29;12.90;99.90
59282;DHT22;45054;52.062;10.010;2022-09-17T09:33:56;13.00;99.90
59282;DHT22;45054;52.062;10.010;2022-09-17T09:36:24;13.10;99.90
59282;DHT22;45054;52.062;10.010;2022-09-17T09:38:54;13.10;99.90
59282;DHT22;45054;52.062;10.010;2022-09-17T09:41:22;13.10;99.90
59282;DHT22;45054;52.062;10.010;2022-09-17T09:43:50;13.30;99.90
59282;DHT22;45054;52.062;10.010;2022-09-17T09:46:25;13.30;99.90
59282;DHT22;45054;52.062;10.010;2022-09-17T09:48:53;13.30;99.90
59282;DHT22;45054;52.062;10.010;2022-09-17T09:51:27;13.30;99.90
59282;DHT22;45054;52.062;10.010;2022-09-17T09:54:01;13.30;99.90
59282;DHT22;45054;52.062;10.010;2022-09-17T09:56:34;13.30;99.90
59282;DHT22;45054;52.062;10.010;2022-09-17T09:59:05;13.40;99.90
59282;DHT22;45054;52.062;10.010;2022-09-17T10:01:30;13.50;99.90
59282;DHT22;45054;52.062;10.010;2022-09-17T10:03:58;13.50;99.90
59282;DHT22;45054;52.062;10.010;2022-09-17T10:06:23;13.50;99.90
59282;DHT22;45054;52.062;10.010;2022-09-17T10:09:09;13.50;99.90
59282;DHT22;45054;52.062;10.010;2022-09-17T10:11:37;13.40;99.90
59282;DHT22;45054;52.062;10.010;2022-09-17T10:14:12;13.50;99.90
59282;DHT22;45054;52.062;10.010;2022-09-17T10:16:38;13.50;99.90
59282;DHT22;45054;52.062;10.010;2022-09-17T10:19:10;13.50;99.90
59282;DHT22;45054;52.062;10.010;2022-09-17T10:21:36;13.50;99.90
59282;DHT22;45054;52.062;10.010;2022-09-17T10:24:03;13.70;99.90
59282;DHT22;45054;52.062;10.010;2022-09-17T10:26:31;13.80;99.90
59282;DHT22;45054;52.062;10.010;2022-09-17T10:28:57;13.90;99.90
59282;DHT22;45054;52.062;10.010;2022-09-17T10:31:23;14.00;99.90
59282;DHT22;45054;52.062;10.010;2022-09-17T10:33:52;14.00;99.90
59282;DHT22;45054;52.062;10.010;2022-09-17T10:36:36;14.00;99.90
59282;DHT22;45054;52.062;10.010;2022-09-17T10:39:16;13.80;99.90
59282;DHT22;45054;52.062;10.010;2022-09-17T10:41:44;13.80;99.90
59282;DHT22;45054;52.062;10.010;2022-09-17T10:44:17;13.90;99.90
59282;DHT22;45054;52.062;10.010;2022-09-17T10:46:42;14.20;99.90
59282;DHT22;45054;52.062;10.010;2022-09-17T10:49:09;14.30;99.90
59282;DHT22;45054;52.062;10.010;2022-09-17T10:51:35;14.40;99.90
59282;DHT22;45054;52.062;10.010;2022-09-17T10:54:12;14.50;99.90
59282;DHT22;45054;52.062;10.010;2022-09-17T10:56:41;14.50;99.90
59282;DHT22;45054;52.062;10.010;2022-09-17T11:01:52;14.40;99.90
59282;DHT22;45054;52.062;10.010;2022-09-17T11:04:24;14.60;99.90
59282;DHT22;45054;52.062;10.010;2022-09-17T11:07:03;14.70;99.90
59282;DHT22;45054;52.062;10.010;2022-09-17T11:09:33;14.80;99.90
59282;DHT22;45054;52.062;10.010;2022-09-17T11:12:05;14.90;99.90
59282;DHT22;45054;52.062;10.010;2022-09-17T11:14:48;14.80;99.90
59282;DHT22;45054;52.062;10.010;2022-09-17T11:17:22;14.60;99.90
59282;DHT22;45054;52.062;10.010;2022-09-17T11:19:53;14.60;99.90
59282;DHT22;45054;52.062;10.010;2022-09-17T11:22:20;14.70;99.90
59282;DHT22;45054;52.062;10.010;2022-09-17T11:24:56;14.70;99.90
59282;DHT22;45054;52.062;10.010;2022-09-17T11:27:31;14.80;99.90
59282;DHT22;45054;52.062;10.010;2022-09-17T11:30:01;14.80;99.90
59282;DHT22;45054;52.062;10.010;2022-09-17T11:32:33;14.90;99.90
59282;DHT22;45054;52.062;10.010;2022-09-17T11:35:01;15.00;99.90
59282;DHT22;45054;52.062;10.010;2022-09-17T11:37:29;15.10;99.90
59282;DHT22;45054;52.062;10.010;2022-09-17T11:39:56;15.10;99.90
59282;DHT22;45054;52.062;10.010;2022-09-17T11:42:23;15.00;99.90
59282;DHT22;45054;52.062;10.010;2022-09-17T11:44:52;15.00;99.90
59282;DHT22;45054;52.062;10.010;2022-09-17T11:47:19;15.00;99.90
59282;DHT22;45054;52.062;10.010;2022-09-17T11:49:49;14.90;99.90
59282;DHT22;45054;52.062;10.010;2022-09-17T11:52:17;14.80;99.90
59282;DHT22;45054;52.062;10.010;2022-09-17T11:54:45;14.80;99.90
59282;DHT22;45054;52.062;10.010;2022-09-17T11:57:12;14.80;99.90
59282;DHT22;45054;52.062;10.010;2022-09-17T11:59:40;14.90;99.90
59282;DHT22;45054;52.062;10.010;2022-09-17T12:02:10;14.90;99.90
59282;DHT22;45054;52.062;10.010;2022-09-17T12:04:40;14.80;99.90
59282;DHT22;45054;52.062;10.010;2022-09-17T12:07:12;14.60;99.90
59282;DHT22;45054;52.062;10.010;2022-09-17T12:09:39;14.60;99.90
59282;DHT22;45054;52.062;10.010;2022-09-17T12:12:05;14.50;99.90
59282;DHT22;45054;52.062;10.010;2022-09-17T12:14:35;14.50;99.90
59282;DHT22;45054;52.062;10.010;2022-09-17T12:17:04;14.60;99.90
59282;DHT22;45054;52.062;10.010;2022-09-17T12:19:31;14.70;99.90
59282;DHT22;45054;52.062;10.010;2022-09-17T12:21:58;14.70;99.90
59282;DHT22;45054;52.062;10.010;2022-09-17T12:24:27;14.80;99.90
59282;DHT22;45054;52.062;10.010;2022-09-17T12:26:59;14.90;99.90
59282;DHT22;45054;52.062;10.010;2022-09-17T12:29:29;14.80;99.90
59282;DHT22;45054;52.062;10.010;2022-09-17T12:32:00;14.70;99.90
59282;DHT22;45054;52.062;10.010;2022-09-17T12:34:30;14.70;99.90
59282;DHT22;45054;52.062;10.010;2022-09-17T12:37:02;14.60;99.90
59282;DHT22;45054;52.062;10.010;2022-09-17T12:39:38;14.60;99.90
59282;DHT22;45054;52.062;10.010;2022-09-17T12:42:12;14.50;99.90
59282;DHT22;45054;52.062;10.010;2022-09-17T12:44:46;14.70;99.90
59282;DHT22;45054;52.062;10.010;2022-09-17T12:47:18;14.90;99.90
59282;DHT22;45054;52.062;10.010;2022-09-17T12:49:53;14.90;99.90
59282;DHT22;45054;52.062;10.010;2022-09-17T12:52:25;14.90;99.90
59282;DHT22;45054;52.062;10.010;2022-09-17T12:57:50;14.70;99.90
59282;DHT22;45054;52.062;10.010;2022-09-17T13:00:18;14.70;99.90
59282;DHT22;45054;52.062;10.010;2022-09-17T13:02:44;14.60;99.90
59282;DHT22;45054;52.062;10.010;2022-09-17T13:05:18;14.40;99.90
59282;DHT22;45054;52.062;10.010;2022-09-17T13:07:52;14.30;99.90
59282;DHT22;45054;52.062;10.010;2022-09-17T13:13:19;14.40;99.90
59282;DHT22;45054;52.062;10.010;2022-09-17T13:15:49;14.50;99.90
59282;DHT22;45054;52.062;10.010;2022-09-17T13:18:20;14.50;99.90
59282;DHT22;45054;52.062;10.010;2022-09-17T13:20:51;14.30;99.90
59282;DHT22;45054;52.062;10.010;2022-09-17T13:23:27;14.30;99.90
59282;DHT22;45054;52.062;10.010;2022-09-17T13:25:53;14.00;99.90
59282;DHT22;45054;52.062;10.010;2022-09-17T13:28:20;13.20;99.90
59282;DHT22;45054;52.062;10.010;2022-09-17T13:30:55;12.50;99.90
59282;DHT22;45054;52.062;10.010;2022-09-17T13:36:01;11.80;99.90
59282;DHT22;45054;52.062;10.010;2022-09-17T13:38:27;11.70;99.90
59282;DHT22;45054;52.062;10.010;2022-09-17T13:41:16;11.80;99.90
59282;DHT22;45054;52.062;10.010;2022-09-17T13:43:44;12.00;99.90
59282;DHT22;45054;52.062;10.010;2022-09-17T13:46:13;12.20;99.90
59282;DHT22;45054;52.062;10.010;2022-09-17T13:48:47;12.30;99.90
59282;DHT22;45054;52.062;10.010;2022-09-17T13:53:58;12.70;99.90
59282;DHT22;45054;52.062;10.010;2022-09-17T13:56:27;13.00;99.90
59282;DHT22;45054;52.062;10.010;2022-09-17T13:58:56;13.20;99.90
59282;DHT22;45054;52.062;10.010;2022-09-17T14:04:28;13.50;99.90
59282;DHT22;45054;52.062;10.010;2022-09-17T14:06:55;13.60;99.90
59282;DHT22;45054;52.062;10.010;2022-09-17T14:09:34;13.70;99.90
59282;DHT22;45054;52.062;10.010;2022-09-17T14:11:59;13.70;99.90
59282;DHT22;45054;52.062;10.010;2022-09-17T14:14:46;13.60;99.90
59282;DHT22;45054;52.062;10.010;2022-09-17T14:19:55;13.60;99.90
59282;DHT22;45054;52.062;10.010;2022-09-17T14:22:21;13.60;99.90
59282;DHT22;45054;52.062;10.010;2022-09-17T14:24:50;13.60;99.90
59282;DHT22;45054;52.062;10.010;2022-09-17T14:27:18;13.50;99.90
59282;DHT22;45054;52.062;10.010;2022-09-17T14:29:57;13.40;99.90
59282;DHT22;45054;52.062;10.010;2022-09-17T14:32:26;13.00;99.90
59282;DHT22;45054;52.062;10.010;2022-09-17T14:34:52;12.40;99.90
59282;DHT22;45054;52.062;10.010;2022-09-17T14:37:19;12.00;99.90
59282;DHT22;45054;52.062;10.010;2022-09-17T14:39:44;11.80;99.90
59282;DHT22;45054;52.062;10.010;2022-09-17T14:42:12;11.60;99.90
59282;DHT22;45054;52.062;10.010;2022-09-17T14:44:43;11.60;99.90
59282;DHT22;45054;52.062;10.010;2022-09-17T14:47:13;11.50;99.90
59282;DHT22;45054;52.062;10.010;2022-09-17T14:49:41;11.40;99.90
59282;DHT22;45054;52.062;10.010;2022-09-17T14:52:18;11.00;99.90
59282;DHT22;45054;52.062;10.010;2022-09-17T14:54:44;11.00;99.90
59282;DHT22;45054;52.062;10.010;2022-09-17T14:57:11;11.00;99.90
59282;DHT22;45054;52.062;10.010;2022-09-17T14:59:47;11.00;99.90
59282;DHT22;45054;52.062;10.010;2022-09-17T15:02:28;11.00;99.90
59282;DHT22;45054;52.062;10.010;2022-09-17T15:04:55;11.00;99.90
59282;DHT22;45054;52.062;10.010;2022-09-17T15:07:20;11.10;99.90
59282;DHT22;45054;52.062;10.010;2022-09-17T15:09:46;10.90;99.90
59282;DHT22;45054;52.062;10.010;2022-09-17T15:12:12;10.90;99.90
59282;DHT22;45054;52.062;10.010;2022-09-17T15:14:39;11.00;99.90
59282;DHT22;45054;52.062;10.010;2022-09-17T15:17:05;11.00;99.90
59282;DHT22;45054;52.062;10.010;2022-09-17T15:19:33;11.00;99.90
59282;DHT22;45054;52.062;10.010;2022-09-17T15:22:00;10.90;99.90
59282;DHT22;45054;52.062;10.010;2022-09-17T15:24:32;10.90;99.90
59282;DHT22;45054;52.062;10.010;2022-09-17T15:27:02;10.80;99.90
59282;DHT22;45054;52.062;10.010;2022-09-17T15:29:31;10.90;99.90
59282;DHT22;45054;52.062;10.010;2022-09-17T15:31:58;11.00;99.90
59282;DHT22;45054;52.062;10.010;2022-09-17T15:34:26;11.40;99.90
59282;DHT22;45054;52.062;10.010;2022-09-17T15:37:06;11.80;99.90
59282;DHT22;45054;52.062;10.010;2022-09-17T15:39:40;12.10;99.90
59282;DHT22;45054;52.062;10.010;2022-09-17T15:42:15;12.50;99.90